TimeMST,TemperatureF,Dew PointF,Humidity,Sea Level PressureIn,VisibilityMPH,Wind Direction,Wind SpeedMPH,Gust SpeedMPH,PrecipitationIn,Events,Conditions,WindDirDegrees,DateUTC
12:53 AM,16.0,12.9,88,30.37,10.0,WNW,4.6,-,N/A,,Clear,290,2013-01-17 07:53:00
1:53 AM,15.1,12.0,88,30.36,10.0,WNW,5.8,-,N/A,,Clear,290,2013-01-17 08:53:00
2:53 AM,12.9,10.0,88,30.36,10.0,Calm,Calm,-,N/A,,Clear,0,2013-01-17 09:53:00
3:53 AM,12.0,10.0,92,30.35,10.0,Calm,Calm,-,N/A,,Clear,0,2013-01-17 10:53:00
4:53 AM,16.0,12.9,88,30.32,10.0,West,3.5,-,N/A,,Clear,260,2013-01-17 11:53:00
5:53 AM,15.1,12.0,88,30.30,10.0,SW,6.9,-,N/A,,Clear,230,2013-01-17 12:53:00
6:53 AM,19.9,15.1,81,30.27,10.0,SW,15.0,-,N/A,,Clear,230,2013-01-17 13:53:00
7:53 AM,25.0,18.0,75,30.25,10.0,SW,15.0,-,N/A,,Clear,230,2013-01-17 14:53:00
8:53 AM,30.0,21.0,69,30.24,10.0,SW,18.4,-,N/A,,Clear,220,2013-01-17 15:53:00
9:53 AM,35.1,23.0,61,30.23,10.0,SW,20.7,-,N/A,,Clear,220,2013-01-17 16:53:00
10:53 AM,37.9,24.1,57,30.21,10.0,SW,26.5,-,N/A,,Clear,220,2013-01-17 17:53:00
11:53 AM,39.0,25.0,57,30.18,10.0,SW,21.9,-,N/A,,Clear,220,2013-01-17 18:53:00
12:53 PM,39.0,26.1,60,30.13,10.0,SW,25.3,-,N/A,,Clear,220,2013-01-17 19:53:00
1:53 PM,39.0,27.0,62,30.11,10.0,SW,23.0,-,N/A,,Clear,220,2013-01-17 20:53:00
2:53 PM,39.0,28.0,65,30.09,10.0,SW,23.0,-,N/A,,Clear,220,2013-01-17 21:53:00
3:53 PM,41.0,27.0,57,30.06,10.0,SSW,24.2,-,N/A,,Clear,210,2013-01-17 22:53:00
4:53 PM,39.9,28.0,63,30.04,10.0,SSW,25.3,-,N/A,,Clear,210,2013-01-17 23:53:00
5:53 PM,39.9,28.0,63,30.02,10.0,SW,23.0,-,N/A,,Clear,220,2013-01-18 00:53:00
6:53 PM,39.9,28.0,63,29.98,10.0,SW,25.3,29.9,N/A,,Clear,220,2013-01-18 01:53:00
7:53 PM,41.0,28.0,60,29.97,10.0,SW,18.4,-,N/A,,Clear,220,2013-01-18 02:53:00
8:53 PM,39.9,28.0,63,29.97,10.0,SW,16.1,-,N/A,,Clear,220,2013-01-18 03:53:00
9:53 PM,43.0,26.1,51,29.95,10.0,WSW,25.3,33.4,N/A,,Clear,250,2013-01-18 04:53:00
10:53 PM,37.9,28.0,68,29.96,10.0,SW,21.9,-,N/A,,Clear,220,2013-01-18 05:53:00
11:53 PM,37.9,27.0,65,29.95,10.0,SW,19.6,28.8,N/A,,Clear,230,2013-01-18 06:53:00